Time;durP1;ratioP1;P1;durP2;ratioP2;P2;SDS_P1;SDS_P2;PMS_P1;PMS_P2;Temp;Humidity;BMP_temperature;BMP_pressure;BME280_temperature;BME280_humidity;BME280_pressure;Samples;Min_cycle;Max_cycle;Signal;HPM_P1;HPM_P2
2022/08/20 00:01:42;;;;;;;6.57;5.25;;;23.70;69.90;;;;;;5030405;28;20041;-47
2022/08/20 00:04:09;;;;;;;5.88;5.28;;;23.70;69.80;;;;;;5017926;28;20522;-48
2022/08/20 00:06:37;;;;;;;4.93;4.28;;;23.70;69.90;;;;;;5021809;28;20414;-52
2022/08/20 00:09:10;;;;;;;8.32;4.85;;;23.70;69.90;;;;;;5028119;28;20525;-51
2022/08/20 00:11:37;;;;;;;5.18;4.68;;;23.70;70.20;;;;;;5031185;28;20041;-48
2022/08/20 00:14:05;;;;;;;4.97;4.45;;;23.70;69.70;;;;;;5016942;28;20052;-48
2022/08/20 00:16:37;;;;;;;4.70;4.30;;;23.60;69.70;;;;;;5018190;28;20104;-49
2022/08/20 00:19:08;;;;;;;6.38;4.57;;;23.60;69.70;;;;;;5027983;28;20453;-49
2022/08/20 00:21:40;;;;;;;7.30;5.17;;;23.60;69.90;;;;;;5011175;28;20042;-51
2022/08/20 00:24:14;;;;;;;5.43;4.70;;;23.50;69.80;;;;;;5020440;28;20069;-49
2022/08/20 00:26:44;;;;;;;8.52;5.07;;;23.50;70.30;;;;;;5029034;28;20046;-49
2022/08/20 00:29:18;;;;;;;6.20;4.47;;;23.40;70.20;;;;;;5004929;28;20041;-48
2022/08/20 00:31:49;;;;;;;5.82;5.22;;;23.40;70.20;;;;;;5006835;28;20555;-48
2022/08/20 00:34:17;;;;;;;8.55;6.00;;;23.40;70.40;;;;;;5024723;28;20541;-51
2022/08/20 00:36:46;;;;;;;5.07;4.25;;;23.30;70.30;;;;;;5010567;28;20038;-51
2022/08/20 00:39:15;;;;;;;6.07;5.32;;;23.30;70.40;;;;;;4991532;28;20406;-50
2022/08/20 00:41:42;;;;;;;6.80;5.78;;;23.30;70.60;;;;;;5011839;28;20069;-51
2022/08/20 00:44:18;;;;;;;6.55;5.85;;;23.30;70.70;;;;;;5020964;28;20232;-49
2022/08/20 00:46:49;;;;;;;6.97;5.35;;;23.30;70.70;;;;;;5030533;28;20045;-48
2022/08/20 00:49:28;;;;;;;8.00;6.18;;;23.30;71.00;;;;;;5025333;28;20513;-50
2022/08/20 00:52:06;;;;;;;6.03;5.45;;;23.30;71.20;;;;;;5018113;28;20092;-52
2022/08/20 00:54:40;;;;;;;5.70;5.07;;;23.30;71.00;;;;;;5022056;28;20490;-52
2022/08/20 00:57:12;;;;;;;7.55;6.65;;;23.30;70.60;;;;;;5027600;28;20421;-52
2022/08/20 00:59:41;;;;;;;7.28;6.10;;;23.30;70.70;;;;;;5007151;28;20460;-50
2022/08/20 01:02:11;;;;;;;7.30;6.50;;;23.20;70.60;;;;;;5020648;28;20041;-51
2022/08/20 01:04:53;;;;;;;8.40;6.55;;;23.20;70.80;;;;;;5029839;28;20033;-52
2022/08/20 01:07:30;;;;;;;9.95;6.15;;;23.20;70.80;;;;;;5019896;28;20041;-48
2022/08/20 01:09:59;;;;;;;9.13;7.43;;;23.20;70.70;;;;;;5010474;28;20557;-51
2022/08/20 01:12:27;;;;;;;9.15;7.07;;;23.20;70.70;;;;;;5019817;28;20049;-52
2022/08/20 01:14:58;;;;;;;7.82;6.72;;;23.20;70.70;;;;;;5026551;28;20525;-51
2022/08/20 01:17:31;;;;;;;8.75;7.07;;;23.20;70.80;;;;;;5025512;28;20765;-53
2022/08/20 01:20:13;;;;;;;8.82;7.35;;;23.20;71.20;;;;;;5012873;28;20045;-51
2022/08/20 01:23:25;;;;;;;8.35;6.85;;;23.20;71.60;;;;;;5021061;28;20046;-52
2022/08/20 01:26:02;;;;;;;9.45;6.97;;;23.20;71.80;;;;;;5029439;28;20124;-51
2022/08/20 01:28:49;;;;;;;7.72;6.93;;;23.20;70.80;;;;;;5007440;28;20046;-52
2022/08/20 01:31:20;;;;;;;8.73;7.05;;;23.20;71.60;;;;;;5007962;28;20494;-49
2022/08/20 01:33:48;;;;;;;8.93;6.75;;;23.30;71.30;;;;;;5017615;28;20050;-52
2022/08/20 01:36:17;;;;;;;8.25;6.97;;;23.30;71.20;;;;;;5009881;28;20100;-49
2022/08/20 01:38:44;;;;;;;11.60;8.07;;;23.30;71.30;;;;;;5005115;28;20044;-50
2022/08/20 01:41:34;;;;;;;7.78;7.03;;;23.30;71.20;;;;;;5016329;28;20056;-47
2022/08/20 01:44:01;;;;;;;7.28;6.32;;;23.30;71.60;;;;;;5020624;28;20050;-49
2022/08/20 01:46:42;;;;;;;11.32;7.18;;;23.30;71.20;;;;;;5021522;28;20053;-50
2022/08/20 01:49:31;;;;;;;9.93;6.78;;;23.30;71.00;;;;;;5022760;28;20080;-50
2022/08/20 01:52:07;;;;;;;8.57;6.50;;;23.30;71.40;;;;;;5026678;28;20124;-50
2022/08/20 01:54:34;;;;;;;9.60;6.83;;;23.40;71.20;;;;;;5017687;28;20096;-50
2022/08/20 01:57:17;;;;;;;7.03;6.13;;;23.40;71.20;;;;;;5020376;28;20037;-49
2022/08/20 01:59:44;;;;;;;6.32;5.72;;;23.40;71.80;;;;;;5024517;28;20100;-52
2022/08/20 02:02:11;;;;;;;7.80;7.00;;;23.40;71.20;;;;;;5029927;28;20107;-51
2022/08/20 02:04:41;;;;;;;7.78;6.82;;;23.40;71.20;;;;;;5006782;28;20179;-50
2022/08/20 02:07:15;;;;;;;6.85;5.90;;;23.40;71.20;;;;;;5002459;28;20512;-48
2022/08/20 02:09:43;;;;;;;7.47;6.78;;;23.40;71.60;;;;;;5020964;28;20536;-51
2022/08/20 02:12:13;;;;;;;7.68;6.35;;;23.40;71.20;;;;;;5029123;28;20494;-51
2022/08/20 02:14:47;;;;;;;;;;;23.40;71.20;;;;;;5018941;28;20042;-47
2022/08/20 02:17:14;;;;;;;7.30;6.38;;;23.50;70.90;;;;;;5019094;28;19936;-52
2022/08/20 02:19:49;;;;;;;6.93;6.28;;;23.50;70.60;;;;;;5020455;28;20091;-49
2022/08/20 02:22:38;;;;;;;7.93;6.15;;;23.50;71.00;;;;;;5006743;28;20682;-50
2022/08/20 02:25:14;;;;;;;7.22;6.10;;;23.50;71.60;;;;;;5008685;28;20715;-53
2022/08/20 02:27:45;;;;;;;8.40;6.50;;;23.50;70.90;;;;;;5012761;28;20050;-49
2022/08/20 02:30:17;;;;;;;6.70;6.00;;;23.50;70.80;;;;;;5014148;28;20123;-48
2022/08/20 02:32:57;;;;;;;6.83;6.13;;;23.50;70.70;;;;;;5022576;28;20088;-49
2022/08/20 02:35:25;;;;;;;6.57;5.85;;;23.60;70.70;;;;;;5006817;28;20099;-47
2022/08/20 02:37:54;;;;;;;9.45;6.03;;;23.50;70.70;;;;;;5013319;28;20046;-48
2022/08/20 02:40:25;;;;;;;7.60;5.95;;;23.50;70.50;;;;;;5013513;28;20100;-52
2022/08/20 02:42:57;;;;;;;6.10;5.50;;;23.50;70.80;;;;;;5018717;28;20458;-49
2022/08/20 02:45:24;;;;;;;7.40;6.47;;;23.50;70.80;;;;;;5024521;28;20446;-48
2022/08/20 02:47:55;;;;;;;6.43;5.80;;;23.50;70.90;;;;;;5024002;28;20041;-49
2022/08/20 02:50:26;;;;;;;7.32;6.20;;;23.50;70.60;;;;;;5032414;28;20077;-51
2022/08/20 02:52:53;;;;;;;7.22;6.30;;;23.50;70.80;;;;;;5019653;28;20093;-47
2022/08/20 02:55:23;;;;;;;7.45;6.70;;;23.50;70.90;;;;;;5020726;28;20049;-50
2022/08/20 02:57:58;;;;;;;6.93;6.32;;;23.50;70.80;;;;;;5028471;28;20045;-51
2022/08/20 03:00:29;;;;;;;6.05;5.45;;;23.50;70.70;;;;;;5030968;28;20045;-51
2022/08/20 03:03:03;;;;;;;7.72;6.75;;;23.50;70.50;;;;;;5018030;28;20041;-52
2022/08/20 03:05:30;;;;;;;6.97;6.00;;;23.50;71.10;;;;;;5023926;28;20108;-47
2022/08/20 03:07:59;;;;;;;7.05;5.72;;;23.50;71.40;;;;;;5031840;28;20496;-52
2022/08/20 03:10:35;;;;;;;6.07;5.45;;;23.40;71.20;;;;;;5013419;28;20041;-48
2022/08/20 03:13:13;;;;;;;7.18;5.63;;;23.40;71.60;;;;;;5021167;28;20049;-47
2022/08/20 03:15:47;;;;;;;6.78;5.47;;;23.40;71.20;;;;;;5026766;28;20046;-48
2022/08/20 03:18:15;;;;;;;8.25;7.40;;;23.30;71.70;;;;;;5000198;28;20081;-47
2022/08/20 03:20:43;;;;;;;10.50;9.27;;;23.30;72.20;;;;;;5008260;28;20523;-49
2022/08/20 03:23:12;;;;;;;8.20;7.30;;;23.10;71.60;;;;;;5012845;28;20406;-47
2022/08/20 03:25:42;;;;;;;14.55;11.23;;;23.00;71.90;;;;;;5011735;28;20034;-47
2022/08/20 03:28:15;;;;;;;15.88;12.75;;;23.00;72.00;;;;;;5008717;28;20041;-51
2022/08/20 03:30:44;;;;;;;14.95;13.27;;;22.90;72.30;;;;;;5009335;28;20438;-48
2022/08/20 03:33:11;;;;;;;17.50;15.00;;;22.90;72.60;;;;;;5021160;28;20041;-47
2022/08/20 03:35:40;;;;;;;19.40;15.55;;;22.80;72.70;;;;;;5010858;28;20429;-48
2022/08/20 03:38:10;;;;;;;21.77;15.98;;;22.80;73.20;;;;;;5009364;28;20045;-51
2022/08/20 03:40:39;;;;;;;18.50;14.73;;;22.70;73.30;;;;;;5012697;28;20470;-46
2022/08/20 03:43:11;;;;;;;18.23;14.93;;;22.70;73.40;;;;;;5021434;28;20128;-51
2022/08/20 03:45:42;;;;;;;;;;;22.50;73.60;;;;;;5031859;28;20061;-51
2022/08/20 03:48:13;;;;;;;19.17;15.38;;;22.60;74.00;;;;;;5024035;28;20783;-48
2022/08/20 03:50:41;;;;;;;20.42;17.00;;;22.50;73.50;;;;;;5024088;28;20056;-47
2022/08/20 03:53:10;;;;;;;25.40;18.50;;;22.40;73.90;;;;;;5022504;28;20107;-53
2022/08/20 03:55:43;;;;;;;23.40;18.23;;;22.40;74.30;;;;;;5057922;22;20055;-46
2022/08/20 03:58:21;;;;;;;23.25;17.10;;;22.40;74.50;;;;;;5075423;28;20115;-46
2022/08/20 04:01:01;;;;;;;23.08;18.20;;;22.30;74.40;;;;;;5070736;28;20071;-46
2022/08/20 04:03:31;;;;;;;20.92;17.35;;;22.30;74.40;;;;;;5070181;28;20582;-47
2022/08/20 04:05:58;;;;;;;20.10;15.90;;;22.30;74.50;;;;;;5071442;28;20040;-46
2022/08/20 04:08:28;;;;;;;22.73;17.33;;;22.20;74.80;;;;;;5073959;28;20504;-47
2022/08/20 04:10:58;;;;;;;20.85;16.08;;;22.30;75.10;;;;;;5071052;28;20110;-46
2022/08/20 04:13:28;;;;;;;;;;;22.20;74.80;;;;;;5070417;28;20059;-48
2022/08/20 04:15:55;;;;;;;22.67;16.25;;;22.30;74.60;;;;;;5073316;28;20987;-46
2022/08/20 04:18:24;;;;;;;19.23;15.95;;;22.20;73.90;;;;;;5074957;28;20044;-47
2022/08/20 04:20:52;;;;;;;22.13;18.15;;;22.20;74.10;;;;;;5071457;28;20113;-46
2022/08/20 04:23:20;;;;;;;21.73;18.13;;;22.20;74.40;;;;;;5070172;28;20032;-47
2022/08/20 04:25:47;;;;;;;25.73;17.13;;;22.20;74.60;;;;;;5073583;28;20090;-49
2022/08/20 04:28:25;;;;;;;25.45;18.92;;;22.20;74.80;;;;;;5069765;28;20041;-48
2022/08/20 04:30:59;;;;;;;23.15;19.13;;;22.20;75.20;;;;;;5071884;28;20500;-46
2022/08/20 04:33:30;;;;;;;23.15;18.23;;;22.20;75.00;;;;;;5070607;28;20048;-46
2022/08/20 04:36:04;;;;;;;24.80;18.83;;;22.20;74.40;;;;;;5072365;28;20047;-47
2022/08/20 04:38:31;;;;;;;21.92;17.88;;;22.20;73.90;;;;;;5070765;28;20083;-47
2022/08/20 04:41:18;;;;;;;22.67;18.05;;;22.20;73.80;;;;;;5071504;28;20037;-47
2022/08/20 04:44:00;;;;;;;22.67;17.13;;;22.10;74.00;;;;;;5072334;28;20040;-47
2022/08/20 04:46:27;;;;;;;21.35;16.60;;;22.10;73.90;;;;;;5068083;28;20036;-46
2022/08/20 04:48:56;;;;;;;23.63;16.77;;;22.10;73.80;;;;;;5069942;28;20110;-47
2022/08/20 04:51:26;;;;;;;21.85;16.85;;;22.10;74.10;;;;;;5074152;28;20040;-47
2022/08/20 04:53:55;;;;;;;20.25;16.30;;;22.10;74.10;;;;;;5072043;28;20451;-46
2022/08/20 04:56:29;;;;;;;25.15;18.65;;;22.10;74.20;;;;;;5068843;28;20040;-47
2022/08/20 04:58:59;;;;;;;20.77;16.48;;;22.10;74.30;;;;;;5070659;28;20056;-46
2022/08/20 05:01:29;;;;;;;20.63;16.65;;;22.10;74.30;;;;;;5071282;28;20072;-47
2022/08/20 05:03:58;;;;;;;22.40;16.75;;;22.10;74.20;;;;;;5072936;28;20581;-46
2022/08/20 05:06:28;;;;;;;22.05;16.38;;;22.10;74.30;;;;;;5070979;28;20466;-47
2022/08/20 05:09:02;;;;;;;22.67;16.17;;;22.10;74.60;;;;;;5069873;28;20469;-46
2022/08/20 05:11:34;;;;;;;20.15;15.93;;;22.10;74.40;;;;;;5071232;28;20055;-47
2022/08/20 05:14:13;;;;;;;20.25;16.30;;;22.10;74.50;;;;;;5075435;28;20524;-47
2022/08/20 05:16:40;;;;;;;22.73;16.73;;;22.10;74.30;;;;;;5070948;28;20103;-46
2022/08/20 05:19:11;;;;;;;20.27;16.40;;;22.10;74.20;;;;;;5069931;28;20044;-46
2022/08/20 05:21:38;;;;;;;20.90;15.35;;;22.10;74.30;;;;;;5075895;28;20051;-47
2022/08/20 05:24:06;;;;;;;19.30;15.63;;;22.10;74.20;;;;;;5069635;28;20044;-51
2022/08/20 05:26:33;;;;;;;20.35;16.00;;;22.10;74.10;;;;;;5069305;28;20044;-47
2022/08/20 05:29:03;;;;;;;20.15;16.15;;;22.10;74.10;;;;;;5069000;28;20036;-50
2022/08/20 05:31:37;;;;;;;18.83;15.52;;;22.20;74.20;;;;;;5076442;28;20068;-50
2022/08/20 05:34:08;;;;;;;23.25;17.40;;;22.20;74.10;;;;;;5069549;28;20045;-47
2022/08/20 05:36:59;;;;;;;17.52;14.82;;;22.20;74.10;;;;;;5069691;28;20588;-49
2022/08/20 05:39:26;;;;;;;21.58;16.20;;;22.20;73.90;;;;;;5072613;28;20119;-52
2022/08/20 05:41:55;;;;;;;22.67;16.10;;;22.30;74.00;;;;;;5069510;28;20064;-54
2022/08/20 05:44:25;;;;;;;21.58;16.92;;;22.30;73.80;;;;;;5061743;28;20747;-49
2022/08/20 05:46:51;;;;;;;23.75;16.60;;;22.30;73.50;;;;;;5069398;28;20048;-50
2022/08/20 05:49:25;;;;;;;20.20;16.42;;;22.30;73.10;;;;;;5068575;28;20044;-49
2022/08/20 05:51:53;;;;;;;21.15;15.40;;;22.30;73.00;;;;;;5069523;28;20055;-50
2022/08/20 05:54:21;;;;;;;20.13;14.68;;;22.20;72.70;;;;;;5066897;28;20052;-53
2022/08/20 05:56:50;;;;;;;18.20;13.75;;;22.30;72.70;;;;;;5068596;28;20098;-49
2022/08/20 05:59:23;;;;;;;16.83;13.10;;;22.30;72.70;;;;;;5069960;28;20060;-53
2022/08/20 06:01:51;;;;;;;19.17;13.65;;;22.20;72.80;;;;;;5064291;28;20044;-50
2022/08/20 06:04:24;;;;;;;21.52;14.30;;;22.30;72.50;;;;;;5068413;28;20094;-52
2022/08/20 06:06:53;;;;;;;22.00;14.77;;;22.30;72.50;;;;;;5072432;28;20087;-53
2022/08/20 06:09:22;;;;;;;17.70;13.63;;;22.30;72.40;;;;;;5075682;28;20044;-51
2022/08/20 06:12:05;;;;;;;16.80;13.57;;;22.30;72.20;;;;;;5072404;28;20439;-48
2022/08/20 06:14:32;;;;;;;20.30;14.57;;;22.30;72.20;;;;;;5071788;28;20064;-49
2022/08/20 06:17:03;;;;;;;20.05;13.95;;;22.40;72.10;;;;;;5074452;28;20044;-52
2022/08/20 06:19:30;;;;;;;18.97;13.40;;;22.40;71.90;;;;;;5056781;28;20056;-53
2022/08/20 06:21:58;;;;;;;24.40;14.57;;;22.40;71.40;;;;;;5066591;28;20493;-52
2022/08/20 06:24:25;;;;;;;22.42;12.02;;;22.40;71.50;;;;;;5070429;28;20518;-50
2022/08/20 06:27:03;;;;;;;22.80;12.63;;;22.40;71.30;;;;;;5071251;28;20040;-50
2022/08/20 06:29:32;;;;;;;19.85;12.77;;;22.40;71.20;;;;;;5075508;28;20044;-53
2022/08/20 06:32:00;;;;;;;18.48;12.95;;;22.30;70.90;;;;;;5071390;28;20082;-51
2022/08/20 06:34:28;;;;;;;22.40;12.35;;;22.30;71.10;;;;;;5063166;28;20068;-52
2022/08/20 06:36:57;;;;;;;19.20;12.88;;;22.40;71.20;;;;;;5067989;28;20048;-50
2022/08/20 06:39:27;;;;;;;21.25;12.70;;;22.30;71.20;;;;;;5072359;28;20049;-53
2022/08/20 06:41:57;;;;;;;20.27;12.60;;;22.40;71.40;;;;;;5072590;28;20053;-49
2022/08/20 06:44:24;;;;;;;19.77;12.73;;;22.40;71.60;;;;;;5073364;28;20110;-53
2022/08/20 06:46:51;;;;;;;24.48;13.35;;;22.30;71.20;;;;;;5075747;28;20064;-53
2022/08/20 06:49:18;;;;;;;22.92;13.25;;;22.30;70.70;;;;;;5071786;28;20037;-50
2022/08/20 06:51:45;;;;;;;21.02;11.60;;;22.30;70.70;;;;;;5070234;28;20051;-50
2022/08/20 06:54:17;;;;;;;19.90;11.32;;;22.30;70.70;;;;;;5071986;28;20526;-49
2022/08/20 06:56:44;;;;;;;19.38;11.50;;;22.30;70.80;;;;;;5071708;28;20575;-52
2022/08/20 06:59:11;;;;;;;20.40;11.95;;;22.40;70.90;;;;;;5070410;28;20053;-53
2022/08/20 07:01:37;;;;;;;20.55;11.68;;;22.30;71.10;;;;;;5071988;28;20692;-49
2022/08/20 07:04:06;;;;;;;18.75;10.45;;;22.40;70.90;;;;;;5062325;28;20401;-53
2022/08/20 07:06:33;;;;;;;21.15;10.13;;;22.30;70.60;;;;;;5074052;28;20459;-52
2022/08/20 07:09:00;;;;;;;21.52;11.07;;;22.40;70.60;;;;;;5071755;28;20047;-49
2022/08/20 07:11:26;;;;;;;18.25;9.82;;;22.30;70.80;;;;;;5071614;28;20570;-50
2022/08/20 07:13:56;;;;;;;15.80;9.90;;;22.30;70.60;;;;;;5072303;28;20040;-51
2022/08/20 07:16:24;;;;;;;19.90;11.40;;;22.40;70.40;;;;;;5062191;28;20033;-53
2022/08/20 07:18:50;;;;;;;24.75;11.48;;;22.40;70.30;;;;;;5070081;28;20505;-52
2022/08/20 07:21:17;;;;;;;21.92;11.95;;;22.40;70.20;;;;;;5072117;28;20037;-53
2022/08/20 07:23:44;;;;;;;18.35;9.88;;;22.40;70.30;;;;;;5072181;28;20068;-55
2022/08/20 07:26:11;;;;;;;22.35;10.40;;;22.50;70.30;;;;;;5072845;28;20106;-51
2022/08/20 07:28:38;;;;;;;17.02;11.00;;;22.50;70.20;;;;;;5074597;28;20401;-52
2022/08/20 07:33:52;;;;;;;20.33;11.27;;;22.60;69.90;;;;;;5068074;28;20047;-49
2022/08/20 07:36:19;;;;;;;23.48;12.02;;;22.60;69.80;;;;;;5058067;28;20094;-52
2022/08/20 07:38:47;;;;;;;18.45;10.98;;;22.60;69.60;;;;;;5068930;28;20079;-53
2022/08/20 07:41:18;;;;;;;20.27;11.63;;;22.70;69.40;;;;;;5072208;28;20041;-52
2022/08/20 07:43:46;;;;;;;16.58;10.43;;;22.70;69.20;;;;;;5076106;28;20045;-51
2022/08/20 07:46:15;;;;;;;18.95;10.45;;;22.70;69.00;;;;;;5070895;28;20049;-53
2022/08/20 07:48:48;;;;;;;18.38;10.57;;;22.70;68.70;;;;;;5068786;28;20118;-51
2022/08/20 07:51:17;;;;;;;20.70;11.90;;;22.70;68.50;;;;;;5077364;28;20094;-52
2022/08/20 07:53:48;;;;;;;21.88;11.75;;;22.70;68.50;;;;;;5068317;28;20131;-53
2022/08/20 07:56:20;;;;;;;22.52;11.13;;;22.70;68.50;;;;;;5067175;28;20040;-53
2022/08/20 07:58:51;;;;;;;21.05;11.60;;;22.60;68.50;;;;;;5068267;28;20393;-53
2022/08/20 08:01:24;;;;;;;20.75;11.27;;;22.70;68.60;;;;;;5073818;28;20033;-51
2022/08/20 08:03:51;;;;;;;20.55;11.13;;;22.60;68.80;;;;;;5070723;28;20373;-52
2022/08/20 08:06:21;;;;;;;17.50;12.10;;;22.60;69.00;;;;;;5069111;28;20101;-49
2022/08/20 08:09:00;;;;;;;20.58;11.82;;;22.60;68.80;;;;;;5070987;28;20058;-49
2022/08/20 08:11:27;;;;;;;22.40;12.02;;;22.70;68.90;;;;;;5066571;28;20089;-50
2022/08/20 08:13:53;;;;;;;23.63;12.98;;;22.70;68.70;;;;;;5070451;28;20071;-52
2022/08/20 08:16:20;;;;;;;24.85;12.50;;;22.70;68.70;;;;;;5064708;28;20075;-50
2022/08/20 08:18:52;;;;;;;22.58;12.43;;;22.70;68.40;;;;;;5066537;28;20161;-51
2022/08/20 08:21:21;;;;;;;20.50;11.80;;;22.70;68.40;;;;;;5069456;28;20037;-53
2022/08/20 08:23:48;;;;;;;19.98;11.68;;;22.70;68.40;;;;;;5068677;28;20095;-53
2022/08/20 08:26:17;;;;;;;25.23;13.55;;;22.70;68.00;;;;;;5068858;28;20033;-53
2022/08/20 08:28:45;;;;;;;18.92;12.05;;;22.70;68.00;;;;;;5077038;28;20051;-53
2022/08/20 08:31:13;;;;;;;20.95;12.57;;;22.70;68.10;;;;;;5075051;28;20511;-53
2022/08/20 08:33:40;;;;;;;21.40;12.55;;;22.80;68.20;;;;;;5077097;28;20037;-52
2022/08/20 08:36:13;;;;;;;20.77;12.95;;;22.80;68.60;;;;;;5077428;28;20041;-53
2022/08/20 08:38:43;;;;;;;20.70;12.30;;;22.80;68.80;;;;;;5070169;28;20535;-50
2022/08/20 08:41:30;;;;;;;20.85;10.57;;;22.90;68.10;;;;;;5070915;28;20036;-49
2022/08/20 08:44:09;;;;;;;19.75;9.90;;;23.00;67.80;;;;;;5069903;28;20041;-48
2022/08/20 08:46:47;;;;;;;17.98;11.90;;;23.00;68.40;;;;;;5070298;28;20067;-51
2022/08/20 08:49:18;;;;;;;20.90;10.63;;;23.10;68.10;;;;;;5068640;28;20129;-50
2022/08/20 08:51:55;;;;;;;23.08;11.32;;;23.20;67.80;;;;;;5067730;28;20052;-54
2022/08/20 08:54:26;;;;;;;21.42;11.10;;;23.20;67.40;;;;;;5072255;28;20056;-52
2022/08/20 08:56:53;;;;;;;20.27;12.18;;;23.30;67.40;;;;;;5070811;28;20040;-49
2022/08/20 08:59:21;;;;;;;21.73;11.15;;;23.30;66.90;;;;;;5069398;28;20049;-50
2022/08/20 09:01:58;;;;;;;20.40;10.40;;;23.40;66.70;;;;;;5070082;28;20050;-49
2022/08/20 09:04:33;;;;;;;17.88;10.20;;;23.40;66.60;;;;;;5070000;28;20040;-50
2022/08/20 09:07:03;;;;;;;22.20;12.43;;;23.40;66.10;;;;;;5074208;28;20063;-53
2022/08/20 09:09:42;;;;;;;21.83;10.82;;;23.40;66.40;;;;;;5067916;28;20036;-54
2022/08/20 09:12:17;;;;;;;18.52;12.35;;;23.40;66.50;;;;;;5069937;28;20708;-51
2022/08/20 09:14:46;;;;;;;18.55;13.77;;;23.40;66.40;;;;;;5075270;28;20044;-49
2022/08/20 09:17:14;;;;;;;19.55;12.07;;;23.50;66.40;;;;;;5070607;28;20045;-53
2022/08/20 09:19:41;;;;;;;20.45;12.68;;;23.60;66.40;;;;;;5069707;28;20044;-50
2022/08/20 09:22:10;;;;;;;19.52;11.40;;;23.60;66.30;;;;;;5068063;28;20041;-49
2022/08/20 09:24:38;;;;;;;16.63;10.88;;;23.60;66.20;;;;;;5069919;28;20051;-50
2022/08/20 09:27:08;;;;;;;22.98;14.30;;;23.60;66.20;;;;;;5076687;28;20039;-53
2022/08/20 09:29:38;;;;;;;24.10;13.75;;;23.60;66.00;;;;;;5064122;28;20123;-50
2022/08/20 09:32:18;;;;;;;19.13;11.90;;;23.70;65.90;;;;;;5069358;28;20056;-50
2022/08/20 09:34:50;;;;;;;18.92;10.43;;;23.60;65.90;;;;;;5070436;28;20587;-49
2022/08/20 09:37:18;;;;;;;15.82;11.75;;;23.60;66.00;;;;;;5069543;28;20044;-52
2022/08/20 09:39:46;;;;;;;22.40;14.02;;;23.60;65.60;;;;;;5070990;28;20045;-50
2022/08/20 09:42:18;;;;;;;23.13;15.40;;;23.60;65.40;;;;;;5073290;28;20036;-48
2022/08/20 09:44:45;;;;;;;21.83;14.50;;;23.60;65.00;;;;;;5075924;28;20044;-51
2022/08/20 09:47:12;;;;;;;22.75;16.70;;;23.50;65.00;;;;;;5078433;28;20467;-50
2022/08/20 09:49:42;;;;;;;22.73;16.73;;;23.50;65.10;;;;;;5072278;28;20105;-50
2022/08/20 09:52:31;;;;;;;23.00;13.88;;;23.40;65.50;;;;;;5058747;28;20157;-51
2022/08/20 09:55:04;;;;;;;20.42;13.85;;;23.30;66.10;;;;;;5069262;28;20059;-48
2022/08/20 09:57:31;;;;;;;24.75;15.77;;;23.30;66.30;;;;;;5071974;28;20040;-49
2022/08/20 10:00:01;;;;;;;19.58;13.75;;;23.30;66.50;;;;;;5074908;28;20463;-52
2022/08/20 10:02:38;;;;;;;24.58;18.30;;;23.30;66.50;;;;;;5073014;28;20048;-51
2022/08/20 10:05:05;;;;;;;27.45;19.55;;;23.30;66.40;;;;;;5072018;28;20048;-51
2022/08/20 10:07:37;;;;;;;22.92;16.80;;;23.30;66.50;;;;;;5071957;28;20051;-51
2022/08/20 10:10:06;;;;;;;21.00;16.58;;;23.30;66.40;;;;;;5073814;28;20064;-52
2022/08/20 10:12:33;;;;;;;21.98;15.30;;;23.30;66.40;;;;;;5072668;28;20749;-50
2022/08/20 10:14:59;;;;;;;22.17;15.45;;;23.30;66.30;;;;;;5070121;28;20040;-52
2022/08/20 10:17:26;;;;;;;22.63;15.13;;;23.30;66.30;;;;;;5070513;28;20048;-51
2022/08/20 10:19:53;;;;;;;24.38;16.08;;;23.30;66.40;;;;;;5070437;28;20044;-51
2022/08/20 10:22:20;;;;;;;19.52;14.65;;;23.30;66.00;;;;;;5066579;28;20101;-51
2022/08/20 10:24:46;;;;;;;23.00;14.80;;;23.30;66.20;;;;;;5070752;28;20086;-51
2022/08/20 10:27:13;;;;;;;24.90;14.07;;;23.40;66.30;;;;;;5068041;28;20045;-52
2022/08/20 10:29:40;;;;;;;20.20;14.48;;;23.40;66.50;;;;;;5070137;28;20041;-53
2022/08/20 10:32:14;;;;;;;;;;;23.40;66.70;;;;;;5074463;28;20072;-51
2022/08/20 10:34:42;;;;;;;24.13;14.90;;;23.60;66.70;;;;;;5069489;28;19924;-52
2022/08/20 10:37:13;;;;;;;21.33;15.88;;;23.60;66.60;;;;;;5068334;28;20040;-52
2022/08/20 10:39:40;;;;;;;22.15;15.80;;;23.70;66.40;;;;;;5070530;28;20102;-50
2022/08/20 10:42:06;;;;;;;23.50;15.27;;;23.80;67.20;;;;;;5069843;28;20086;-52
2022/08/20 10:44:33;;;;;;;22.92;16.05;;;23.90;66.30;;;;;;5071210;28;20049;-49
2022/08/20 10:47:17;;;;;;;21.00;16.00;;;23.90;65.40;;;;;;5071174;28;20048;-52
2022/08/20 10:49:43;;;;;;;18.92;14.27;;;24.00;64.90;;;;;;5076411;28;20956;-49
2022/08/20 10:52:10;;;;;;;20.63;14.60;;;24.00;64.90;;;;;;5070873;28;20090;-49
2022/08/20 10:54:40;;;;;;;21.27;15.52;;;24.00;64.50;;;;;;5070464;28;20112;-51
2022/08/20 10:57:12;;;;;;;19.42;14.75;;;23.90;64.90;;;;;;5072383;28;20049;-50
2022/08/20 10:59:40;;;;;;;21.55;14.27;;;24.00;64.80;;;;;;5073147;28;20519;-50
2022/08/20 11:02:08;;;;;;;17.88;12.35;;;24.00;64.90;;;;;;5072544;28;20052;-49
2022/08/20 11:04:35;;;;;;;14.30;11.68;;;24.10;64.30;;;;;;5072463;28;20115;-53
2022/08/20 11:07:14;;;;;;;15.73;11.77;;;24.20;63.50;;;;;;5056683;28;20049;-49
2022/08/20 11:09:43;;;;;;;15.45;11.65;;;24.30;63.50;;;;;;5075445;28;20032;-50
2022/08/20 11:12:10;;;;;;;19.25;13.80;;;24.40;62.60;;;;;;5072916;28;20094;-52
2022/08/20 11:14:37;;;;;;;15.98;11.73;;;24.60;62.50;;;;;;5072442;28;20453;-53
2022/08/20 11:17:04;;;;;;;16.67;11.25;;;24.70;62.20;;;;;;5067611;28;20087;-53
2022/08/20 11:19:32;;;;;;;14.30;10.40;;;24.70;61.20;;;;;;5071636;28;20052;-53
2022/08/20 11:21:59;;;;;;;15.75;10.68;;;24.80;60.70;;;;;;5068100;28;20106;-51
2022/08/20 11:24:25;;;;;;;13.05;9.85;;;24.90;60.50;;;;;;5071896;28;20082;-53
2022/08/20 11:26:52;;;;;;;13.43;9.68;;;24.90;59.60;;;;;;5071627;28;20053;-50
2022/08/20 11:29:21;;;;;;;14.02;8.82;;;25.00;59.30;;;;;;5073814;28;20067;-53
2022/08/20 11:31:48;;;;;;;11.65;7.38;;;25.00;58.70;;;;;;5072643;28;20101;-54
2022/08/20 11:34:14;;;;;;;14.02;10.15;;;25.00;58.90;;;;;;5071912;28;20045;-52
2022/08/20 11:36:43;;;;;;;14.07;9.68;;;25.10;59.50;;;;;;5073372;28;20036;-52
2022/08/20 11:39:10;;;;;;;11.98;9.20;;;25.10;58.40;;;;;;5070311;28;20056;-53
2022/08/20 11:41:36;;;;;;;12.60;9.00;;;25.10;59.10;;;;;;5070744;28;20063;-49
2022/08/20 11:44:03;;;;;;;12.20;7.90;;;25.20;58.40;;;;;;5071116;28;20036;-49
2022/08/20 11:46:47;;;;;;;13.10;8.57;;;25.20;57.80;;;;;;5079624;28;20078;-53
2022/08/20 11:49:16;;;;;;;13.45;8.68;;;25.30;58.90;;;;;;5071274;28;20067;-51
2022/08/20 11:51:43;;;;;;;11.02;7.43;;;25.30;58.00;;;;;;5068403;28;20041;-52
2022/08/20 11:54:16;;;;;;;12.27;8.10;;;25.40;58.20;;;;;;5069236;28;20082;-49
2022/08/20 11:56:43;;;;;;;12.95;7.63;;;25.40;57.80;;;;;;5074667;28;20101;-52
2022/08/20 11:59:12;;;;;;;9.20;6.68;;;25.50;57.80;;;;;;5068216;28;20135;-48
2022/08/20 12:01:39;;;;;;;9.07;7.25;;;25.60;57.00;;;;;;5069595;28;20052;-53
2022/08/20 12:04:06;;;;;;;10.48;6.68;;;25.60;57.10;;;;;;5071793;28;20397;-50
2022/08/20 12:06:32;;;;;;;10.60;7.43;;;25.60;57.70;;;;;;5069947;28;20545;-49
2022/08/20 12:08:59;;;;;;;12.43;8.07;;;25.70;56.90;;;;;;5067461;28;20037;-51
2022/08/20 12:11:26;;;;;;;9.85;7.80;;;25.80;56.70;;;;;;5069534;28;20409;-52
2022/08/20 12:13:53;;;;;;;14.65;8.25;;;25.80;56.10;;;;;;5067770;28;20044;-53
2022/08/20 12:16:20;;;;;;;12.43;7.53;;;25.90;56.00;;;;;;5057631;28;20044;-52
2022/08/20 12:18:47;;;;;;;9.30;6.63;;;25.90;55.80;;;;;;5070124;28;20044;-50
2022/08/20 12:21:16;;;;;;;11.05;7.47;;;25.90;56.20;;;;;;5062585;28;20040;-53
2022/08/20 12:23:43;;;;;;;11.25;7.28;;;26.00;55.60;;;;;;5067838;28;20451;-51
2022/08/20 12:26:10;;;;;;;13.98;6.47;;;26.00;55.50;;;;;;5071425;28;20449;-53
2022/08/20 12:28:37;;;;;;;12.00;7.65;;;26.10;56.00;;;;;;5068302;28;20075;-52
2022/08/20 12:31:04;;;;;;;11.90;7.20;;;26.20;55.00;;;;;;5070560;28;20040;-51
2022/08/20 12:33:31;;;;;;;10.10;6.63;;;26.30;54.90;;;;;;5071358;28;20056;-52
2022/08/20 12:35:58;;;;;;;11.65;6.47;;;26.40;55.00;;;;;;5062798;28;20071;-53
2022/08/20 12:38:25;;;;;;;8.68;7.38;;;26.50;54.50;;;;;;5068884;28;20455;-50
2022/08/20 12:40:51;;;;;;;8.68;6.20;;;26.60;53.70;;;;;;5070562;28;20567;-53
2022/08/20 12:43:20;;;;;;;8.45;5.70;;;26.70;53.70;;;;;;5069325;28;20082;-51
2022/08/20 12:45:50;;;;;;;9.32;7.00;;;26.80;53.80;;;;;;5069007;28;20058;-51
2022/08/20 12:48:19;;;;;;;9.88;5.97;;;26.90;53.00;;;;;;5069694;28;20397;-53
2022/08/20 12:50:48;;;;;;;9.00;5.88;;;27.00;52.30;;;;;;5069364;28;20102;-51
2022/08/20 12:53:17;;;;;;;8.50;6.40;;;27.10;51.90;;;;;;5073013;28;20048;-50
2022/08/20 12:55:46;;;;;;;7.40;5.38;;;27.20;51.20;;;;;;5078414;28;20078;-53